Aéroport Paris-Orly, France

13:54 CET le 20 décembre 2014 (GMT +0100)
Orly | Change Station
CLOSE
Current Station
Aéroport
Location: Paris Orly,
Altitude: 289 ft
Stations météo à proximité

Alt. 289 ft 48.72 °N, 2.38 °E | Updated 24 minutes ago

Mostly Cloudy
Nuageux
50 ° F
Paraît 50 ° F
N
14
Vent Variable Vent de Ouest

Aujourd'hui
Haut(e) -- | Bas -- ° F
--% Risque de précip.
Hier
Haut(e) -- | Bas -- ° F
Precip. -- pouce
8:39 AM 4:55 PM
Lune descendante, 3% visible
Pression 30.39 pouce
Visibilité 6.2 Miles terrestres
Nuages Peu 3000 ft
Nuageux 4600 ft
Point de rosée 39 ° F
Humidité 66%
Précipitations 0.00 pouce
Profondeur de la couche neigeuse Non disponible.
UV 1 sur 12
Pollen Non disponible.
Qualité de l'air Non disponible.
Flu Activity Non disponible.
METAR LFPO 201230Z 28012KT 9999 FEW030 BKN046 10/04 Q1029 NOSIG

More Conditions Fewer Conditions

Pression 30.39 pouce
Visibilité 6.2 Miles terrestres
Nuages Peu 3000 ft
Nuageux 4600 ft
Point de rosée 39 ° F
Humidité 66%
Précipitations 0.00 pouce
Profondeur de la couche neigeuse Non disponible.
UV 1 sur 12
Pollen Non disponible.
Qualité de l'air Non disponible.
Flu Activity Non disponible.
METAR LFPO 201230Z 28012KT 9999 FEW030 BKN046 10/04 Q1029 NOSIG

More Conditions Fewer Conditions

10-Day Weather Forecast

Almanac

Astronomie

Dec. 20, 2014 Lever Coucher
Temps réel
Crépuscule civil
Crépuscule nautique
Crépuscule astronomique
Lune
Durée de lumière visible
Longueur du jour
Tomorrow will be .
, % of the Moon is Illuminated

Extrêmes aujourd'hui

Country Highs Country Lows

Community

WunderPhotos

Upload Photos

1,779,163 Photos téléchargées !

WunderBlogs® & News

Nearby

Qualité de l'air

  Qualité de l'air Indice de la qualité de l'air Polluant
Not available.

Épaisseur de neige

Station Depth Altitude

Activité sismique

Ville Distance Mag. Time & Date
Minimum magnitude displayed is 2.5.

Températures des eaux côtières

Lieu Température

Stations météo à proximité